createdAt,value
2022-09-27T00:04:29.076Z,1.12
2022-09-27T00:09:33.222Z,1.20
2022-09-27T00:14:38.197Z,1.05
2022-09-27T00:19:41.867Z,0.90
2022-09-27T00:24:45.526Z,0.98
2022-09-27T00:29:50.597Z,1.02
2022-09-27T00:34:54.337Z,0.93
2022-09-27T00:39:58.100Z,0.90
2022-09-27T00:45:12.993Z,0.52
2022-09-27T00:50:25.366Z,0.68
2022-09-27T00:55:34.281Z,0.65
2022-09-27T01:00:43.712Z,0.95
2022-09-27T01:05:47.425Z,0.47
2022-09-27T01:11:05.472Z,0.40
2022-09-27T01:16:19.928Z,1.42
2022-09-27T01:21:40.684Z,1.05
2022-09-27T01:27:13.356Z,0.75
2022-09-27T01:32:23.786Z,0.50
2022-09-27T01:37:37.619Z,0.75
2022-09-27T01:42:49.188Z,0.80
2022-09-27T01:47:58.142Z,2.17
2022-09-27T01:53:11.958Z,0.60
2022-09-27T01:58:22.088Z,1.05
2022-09-27T02:03:32.094Z,1.17
2022-09-27T02:08:44.737Z,1.00
2022-09-27T02:13:54.457Z,0.73
2022-09-27T02:19:15.732Z,1.40
2022-09-27T02:24:25.744Z,1.13
2022-09-27T02:29:38.617Z,1.17
2022-09-27T02:34:46.232Z,1.30
2022-09-27T02:39:50.267Z,1.50
2022-09-27T02:44:54.416Z,1.12
2022-09-27T02:50:18.508Z,1.17
2022-09-27T02:55:35.438Z,0.82
2022-09-27T03:00:47.548Z,0.88
2022-09-27T03:06:01.360Z,1.80
2022-09-27T03:11:05.682Z,3.17
2022-09-27T03:16:09.502Z,1.35
2022-09-27T03:21:19.204Z,1.30
2022-09-27T03:26:23.034Z,1.30
2022-09-27T03:31:26.775Z,1.20
2022-09-27T03:36:35.061Z,1.48
2022-09-27T03:41:39.264Z,0.90
2022-09-27T03:46:43.209Z,1.15
2022-09-27T03:51:48.326Z,0.60
2022-09-27T03:56:52.224Z,0.95
2022-09-27T04:01:56.351Z,0.80
2022-09-27T04:12:09.584Z,0.62
2022-09-27T04:17:13.545Z,0.62
2022-09-27T04:22:20.507Z,2.10
2022-09-27T04:27:24.266Z,0.60
2022-09-27T04:32:28.092Z,0.62
2022-09-27T04:37:53.543Z,0.88
2022-09-27T04:42:57.429Z,0.60
2022-09-27T04:48:01.081Z,0.73
2022-09-27T04:53:07.095Z,1.00
2022-09-27T04:58:11.174Z,1.30
2022-09-27T05:03:15.604Z,0.80
2022-09-27T05:08:27.713Z,0.90
2022-09-27T05:13:36.931Z,0.80
2022-09-27T05:18:41.293Z,0.93
2022-09-27T05:23:49.907Z,0.60
2022-09-27T05:28:53.779Z,1.35
2022-09-27T05:33:57.647Z,0.93
2022-09-27T05:39:03.720Z,0.93
2022-09-27T05:44:07.668Z,0.90
2022-09-27T05:49:13.551Z,0.80
2022-09-27T05:54:18.861Z,2.90
2022-09-27T05:59:22.593Z,1.00
2022-09-27T06:04:29.570Z,1.60
2022-09-27T06:09:35.765Z,2.33
2022-09-27T06:14:40.563Z,1.20
2022-09-27T06:19:44.787Z,1.30
2022-09-27T06:24:51.507Z,1.10
2022-09-27T06:29:55.927Z,4.18
2022-09-27T06:35:00.953Z,1.73
2022-09-27T06:40:09.249Z,1.80
2022-09-27T06:45:17.617Z,1.50
2022-09-27T06:50:24.047Z,2.03
2022-09-27T06:55:29.228Z,2.00
2022-09-27T07:00:33.077Z,2.62
2022-09-27T07:05:38.893Z,2.50
2022-09-27T07:10:45.135Z,3.33
2022-09-27T07:15:49.160Z,3.97
2022-09-27T07:20:56.788Z,4.90
2022-09-27T07:26:06.919Z,4.82
2022-09-27T07:31:11.334Z,5.70
2022-09-27T07:36:15.761Z,7.22
2022-09-27T07:41:21.051Z,7.75
2022-09-27T07:46:26.103Z,9.70
2022-09-27T07:51:29.911Z,8.50
2022-09-27T07:56:35.937Z,8.25
2022-09-27T08:01:40.549Z,9.05
2022-09-27T08:06:44.373Z,9.95
2022-09-27T08:11:49.670Z,10.15
2022-09-27T08:16:53.450Z,10.93
2022-09-27T08:21:59.054Z,10.60
2022-09-27T08:27:10.780Z,13.13
2022-09-27T08:32:22.841Z,11.55
2022-09-27T08:37:27.715Z,10.45
2022-09-27T08:42:46.806Z,10.50
2022-09-27T08:47:55.464Z,11.18
2022-09-27T08:53:05.208Z,11.82
2022-09-27T08:58:16.366Z,9.85
2022-09-27T09:03:25.691Z,8.77
2022-09-27T09:08:42.970Z,10.13
2022-09-27T09:14:17.967Z,9.48
2022-09-27T09:19:41.601Z,5.60
2022-09-27T09:24:58.311Z,5.50
2022-09-27T09:30:20.232Z,3.80
2022-09-27T09:35:28.865Z,3.10
2022-09-27T09:40:38.644Z,2.62
2022-09-27T09:45:47.962Z,2.10
2022-09-27T09:50:57.271Z,1.77
2022-09-27T09:56:05.472Z,1.35
2022-09-27T10:01:21.089Z,1.37
2022-09-27T10:06:27.147Z,1.05
2022-09-27T10:11:37.120Z,1.08
2022-09-27T10:16:47.932Z,0.80
2022-09-27T10:21:52.641Z,1.00
2022-09-27T10:27:01.183Z,1.02
2022-09-27T10:32:22.678Z,0.70
2022-09-27T10:37:26.637Z,0.70
2022-09-27T10:42:36.061Z,0.65
2022-09-27T10:47:41.474Z,1.05
2022-09-27T10:52:46.639Z,0.85
2022-09-27T10:57:53.720Z,0.77
2022-09-27T11:03:02.762Z,0.70
2022-09-27T11:08:24.556Z,0.80
2022-09-27T11:13:32.725Z,0.62
2022-09-27T11:18:48.258Z,0.90
2022-09-27T11:24:22.010Z,0.40
2022-09-27T11:29:37.362Z,0.50
2022-09-27T11:35:02.996Z,0.82
2022-09-27T11:40:22.272Z,0.70
2022-09-27T11:46:03.028Z,0.93
2022-09-27T11:56:26.259Z,0.52
2022-09-27T12:01:39.375Z,0.75
2022-09-27T12:06:57.012Z,0.47
2022-09-27T12:12:05.791Z,0.60
2022-09-27T12:17:16.760Z,0.80
2022-09-27T12:22:54.088Z,0.50
2022-09-27T12:27:59.252Z,0.90
2022-09-27T12:33:09.477Z,0.90
2022-09-27T12:38:18.310Z,0.90
2022-09-27T12:43:24.706Z,0.90
2022-09-27T12:48:39.116Z,1.25
2022-09-27T12:54:01.002Z,1.10
2022-09-27T12:59:35.247Z,1.62
2022-09-27T13:05:03.189Z,1.35
2022-09-27T13:10:47.418Z,1.00
2022-09-27T13:15:57.929Z,1.35
2022-09-27T13:21:04.335Z,1.50
2022-09-27T13:26:43.264Z,1.17
2022-09-27T13:32:26.312Z,2.05
2022-09-27T13:37:46.237Z,1.10
2022-09-27T13:43:06.586Z,0.90
2022-09-27T13:48:17.708Z,0.60
2022-09-27T13:53:29.216Z,0.90
2022-09-27T13:58:49.913Z,0.88
2022-09-27T14:04:00.603Z,1.90
2022-09-27T14:14:20.771Z,0.62
2022-09-27T14:19:26.652Z,1.67
2022-09-27T14:24:32.408Z,1.27
2022-09-27T14:29:43.065Z,5.12
2022-09-27T14:35:03.332Z,1.48
2022-09-27T14:40:19.216Z,1.42
2022-09-27T14:45:29.218Z,1.65
2022-09-27T14:50:33.467Z,1.75
2022-09-27T14:55:38.657Z,1.45
2022-09-27T15:00:48.103Z,2.20
2022-09-27T15:05:52.907Z,1.40
2022-09-27T15:10:56.803Z,1.75
2022-09-27T15:16:02.593Z,1.08
2022-09-27T15:21:07.406Z,1.70
2022-09-27T15:26:17.978Z,1.62
2022-09-27T15:31:32.239Z,6.53
2022-09-27T15:36:54.792Z,1.75
2022-09-27T15:42:05.183Z,1.87
2022-09-27T15:47:40.347Z,0.98
2022-09-27T15:52:45.755Z,1.10
2022-09-27T15:57:53.719Z,1.58
2022-09-27T16:02:58.875Z,1.35
2022-09-27T16:08:02.952Z,1.35
2022-09-27T16:13:06.796Z,1.35
2022-09-27T16:18:12.680Z,1.73
2022-09-27T16:23:16.346Z,2.55
2022-09-27T16:28:20.188Z,3.97
2022-09-27T16:33:25.251Z,1.20
2022-09-27T16:38:30.402Z,1.20
2022-09-27T16:43:34.085Z,1.20
2022-09-27T16:48:39.256Z,1.35
2022-09-27T16:53:43.567Z,1.45
2022-09-27T16:58:47.890Z,1.90
2022-09-27T17:03:57.300Z,2.25
2022-09-27T17:09:03.464Z,1.62
2022-09-27T17:14:07.243Z,2.30
2022-09-27T17:19:12.667Z,1.60
2022-09-27T17:24:16.512Z,1.67
2022-09-27T17:29:20.312Z,1.40
2022-09-27T17:34:25.702Z,1.70
2022-09-27T17:39:29.402Z,1.50
2022-09-27T17:44:33.341Z,1.60
2022-09-27T17:49:55.975Z,1.20
2022-09-27T17:54:59.669Z,1.40
2022-09-27T18:00:03.688Z,1.87
2022-09-27T18:05:21.042Z,2.60
2022-09-27T18:10:25.230Z,2.72
2022-09-27T18:15:29.008Z,3.40
2022-09-27T18:20:36.571Z,2.50
2022-09-27T18:25:40.416Z,2.07
2022-09-27T18:30:44.945Z,4.65
2022-09-27T18:35:50.117Z,3.55
2022-09-27T18:40:57.666Z,3.80
2022-09-27T18:46:23.828Z,4.27
2022-09-27T18:51:29.785Z,4.93
2022-09-27T18:56:39.228Z,4.95
2022-09-27T19:01:45.478Z,4.55
2022-09-27T19:06:51.202Z,4.95
2022-09-27T19:11:55.054Z,3.62
2022-09-27T19:16:58.703Z,3.90
2022-09-27T19:22:03.853Z,3.60
2022-09-27T19:27:07.649Z,4.18
2022-09-27T19:32:11.536Z,6.57
2022-09-27T19:37:16.671Z,3.97
2022-09-27T19:42:20.393Z,3.67
2022-09-27T19:47:24.057Z,3.00
2022-09-27T19:52:29.123Z,3.65
2022-09-27T19:57:33.202Z,3.83
2022-09-27T20:02:37.102Z,3.67
2022-09-27T20:07:42.209Z,3.80
2022-09-27T20:12:48.719Z,4.03
2022-09-27T20:17:53.026Z,3.37
2022-09-27T20:22:58.125Z,3.62
2022-09-27T20:28:02.890Z,3.78
2022-09-27T20:33:24.076Z,3.85
2022-09-27T20:38:29.213Z,4.15
2022-09-27T20:43:32.948Z,4.18
2022-09-27T20:48:37.543Z,3.85
2022-09-27T20:53:43.168Z,3.80
2022-09-27T20:58:47.440Z,3.90
2022-09-27T21:03:54.926Z,4.10
2022-09-27T21:09:01.049Z,5.33
2022-09-27T21:14:05.307Z,7.28
2022-09-27T21:19:10.533Z,7.47
2022-09-27T21:24:15.603Z,9.75
2022-09-27T21:29:21.048Z,9.52
2022-09-27T21:34:24.693Z,10.15
2022-09-27T21:39:29.715Z,10.13
2022-09-27T21:44:33.531Z,11.40
2022-09-27T21:49:37.209Z,11.60
2022-09-27T21:54:42.264Z,11.95
2022-09-27T21:59:46.086Z,10.35
2022-09-27T22:04:50.490Z,9.85
2022-09-27T22:09:55.573Z,10.10
2022-09-27T22:14:59.278Z,9.63
2022-09-27T22:20:03.272Z,9.05
2022-09-27T22:25:09.162Z,9.52
2022-09-27T22:30:13.951Z,11.00
2022-09-27T22:35:17.693Z,10.27
2022-09-27T22:40:22.732Z,9.00
2022-09-27T22:45:26.687Z,9.63
2022-09-27T22:50:30.966Z,10.40
2022-09-27T22:55:36.094Z,11.00
2022-09-27T23:00:39.788Z,10.52
2022-09-27T23:05:43.588Z,9.05
2022-09-27T23:10:48.675Z,9.85
2022-09-27T23:15:52.340Z,9.85
2022-09-27T23:20:59.079Z,10.15
2022-09-27T23:26:06.451Z,10.27
2022-09-27T23:31:13.519Z,11.77
2022-09-27T23:36:19.287Z,11.30
2022-09-27T23:41:24.352Z,12.20
2022-09-27T23:46:28.755Z,11.55
2022-09-27T23:51:32.415Z,12.13
2022-09-27T23:56:37.492Z,13.02
